sensor_id;sensor_type;location;lat;lon;timestamp;temperature;humidity
11009;DHT22;5557;51.670;7.788;2023-09-18T00:01:29;19.10;99.90
11009;DHT22;5557;51.670;7.788;2023-09-18T00:03:56;19.10;99.90
11009;DHT22;5557;51.670;7.788;2023-09-18T00:06:25;19.10;99.90
11009;DHT22;5557;51.670;7.788;2023-09-18T00:08:52;19.00;99.90
11009;DHT22;5557;51.670;7.788;2023-09-18T00:11:20;19.00;99.90
11009;DHT22;5557;51.670;7.788;2023-09-18T00:13:47;19.00;99.90
11009;DHT22;5557;51.670;7.788;2023-09-18T00:16:17;19.10;99.90
11009;DHT22;5557;51.670;7.788;2023-09-18T00:18:44;19.00;99.90
11009;DHT22;5557;51.670;7.788;2023-09-18T00:21:11;19.00;99.90
11009;DHT22;5557;51.670;7.788;2023-09-18T00:23:38;19.00;99.90
11009;DHT22;5557;51.670;7.788;2023-09-18T00:26:05;19.00;99.90
11009;DHT22;5557;51.670;7.788;2023-09-18T00:28:32;19.10;99.90
11009;DHT22;5557;51.670;7.788;2023-09-18T00:30:59;19.10;99.90
11009;DHT22;5557;51.670;7.788;2023-09-18T00:33:26;19.10;99.90
11009;DHT22;5557;51.670;7.788;2023-09-18T00:35:53;19.20;99.90
11009;DHT22;5557;51.670;7.788;2023-09-18T00:38:20;19.20;99.90
11009;DHT22;5557;51.670;7.788;2023-09-18T00:40:47;19.20;99.90
11009;DHT22;5557;51.670;7.788;2023-09-18T00:43:14;19.20;99.90
11009;DHT22;5557;51.670;7.788;2023-09-18T00:45:45;19.20;99.90
11009;DHT22;5557;51.670;7.788;2023-09-18T00:48:15;19.20;99.90
11009;DHT22;5557;51.670;7.788;2023-09-18T00:50:46;19.20;99.90
11009;DHT22;5557;51.670;7.788;2023-09-18T00:53:18;19.20;99.90
11009;DHT22;5557;51.670;7.788;2023-09-18T00:55:47;19.20;99.90
11009;DHT22;5557;51.670;7.788;2023-09-18T00:58:15;19.20;99.90
11009;DHT22;5557;51.670;7.788;2023-09-18T01:00:44;19.30;99.90
11009;DHT22;5557;51.670;7.788;2023-09-18T01:03:11;19.20;99.90
11009;DHT22;5557;51.670;7.788;2023-09-18T01:05:38;19.10;99.90
11009;DHT22;5557;51.670;7.788;2023-09-18T01:08:05;19.10;99.90
11009;DHT22;5557;51.670;7.788;2023-09-18T01:10:36;19.10;99.90
11009;DHT22;5557;51.670;7.788;2023-09-18T01:13:12;19.10;99.90
11009;DHT22;5557;51.670;7.788;2023-09-18T01:15:48;19.00;99.90
11009;DHT22;5557;51.670;7.788;2023-09-18T01:18:18;19.00;99.90
11009;DHT22;5557;51.670;7.788;2023-09-18T01:20:45;18.90;99.90
11009;DHT22;5557;51.670;7.788;2023-09-18T01:23:12;18.90;99.90
11009;DHT22;5557;51.670;7.788;2023-09-18T01:25:41;18.90;99.90
11009;DHT22;5557;51.670;7.788;2023-09-18T01:28:08;18.80;99.90
11009;DHT22;5557;51.670;7.788;2023-09-18T01:30:35;18.80;99.90
11009;DHT22;5557;51.670;7.788;2023-09-18T01:33:04;18.70;99.90
11009;DHT22;5557;51.670;7.788;2023-09-18T01:35:33;18.70;99.90
11009;DHT22;5557;51.670;7.788;2023-09-18T01:38:01;18.60;99.90
11009;DHT22;5557;51.670;7.788;2023-09-18T01:40:31;18.60;99.90
11009;DHT22;5557;51.670;7.788;2023-09-18T01:42:58;18.60;99.90
11009;DHT22;5557;51.670;7.788;2023-09-18T01:45:26;18.60;99.90
11009;DHT22;5557;51.670;7.788;2023-09-18T01:47:53;18.60;99.90
11009;DHT22;5557;51.670;7.788;2023-09-18T01:50:20;18.60;99.90
11009;DHT22;5557;51.670;7.788;2023-09-18T01:52:47;18.60;99.90
11009;DHT22;5557;51.670;7.788;2023-09-18T01:55:14;18.50;99.90
11009;DHT22;5557;51.670;7.788;2023-09-18T01:57:41;18.50;99.90
11009;DHT22;5557;51.670;7.788;2023-09-18T02:00:11;18.50;99.90
11009;DHT22;5557;51.670;7.788;2023-09-18T02:02:39;18.50;99.90
11009;DHT22;5557;51.670;7.788;2023-09-18T02:05:26;18.50;99.90
11009;DHT22;5557;51.670;7.788;2023-09-18T02:07:53;18.50;99.90
11009;DHT22;5557;51.670;7.788;2023-09-18T02:10:20;18.50;99.90
11009;DHT22;5557;51.670;7.788;2023-09-18T02:12:48;18.60;99.90
11009;DHT22;5557;51.670;7.788;2023-09-18T02:15:15;18.60;99.90
11009;DHT22;5557;51.670;7.788;2023-09-18T02:17:43;18.70;99.90
11009;DHT22;5557;51.670;7.788;2023-09-18T02:20:11;18.70;99.90
11009;DHT22;5557;51.670;7.788;2023-09-18T02:22:39;18.60;99.90
11009;DHT22;5557;51.670;7.788;2023-09-18T02:25:08;18.60;99.90
11009;DHT22;5557;51.670;7.788;2023-09-18T02:27:35;18.60;99.90
11009;DHT22;5557;51.670;7.788;2023-09-18T02:30:03;18.60;99.90
11009;DHT22;5557;51.670;7.788;2023-09-18T02:32:30;18.60;99.90
11009;DHT22;5557;51.670;7.788;2023-09-18T02:34:58;18.60;99.90
11009;DHT22;5557;51.670;7.788;2023-09-18T02:37:27;18.60;99.90
11009;DHT22;5557;51.670;7.788;2023-09-18T02:39:56;18.60;99.90
11009;DHT22;5557;51.670;7.788;2023-09-18T02:42:23;18.60;99.90
11009;DHT22;5557;51.670;7.788;2023-09-18T02:44:50;18.60;99.90
11009;DHT22;5557;51.670;7.788;2023-09-18T02:47:17;18.70;99.90
11009;DHT22;5557;51.670;7.788;2023-09-18T02:49:47;18.70;99.90
11009;DHT22;5557;51.670;7.788;2023-09-18T02:52:16;18.80;99.90
11009;DHT22;5557;51.670;7.788;2023-09-18T02:54:43;18.80;99.90
11009;DHT22;5557;51.670;7.788;2023-09-18T02:57:10;18.90;99.90
11009;DHT22;5557;51.670;7.788;2023-09-18T02:59:40;18.90;99.90
11009;DHT22;5557;51.670;7.788;2023-09-18T03:02:07;18.90;99.90
11009;DHT22;5557;51.670;7.788;2023-09-18T03:04:34;19.00;99.90
11009;DHT22;5557;51.670;7.788;2023-09-18T03:07:01;19.00;99.20
11009;DHT22;5557;51.670;7.788;2023-09-18T03:09:29;19.10;98.10
11009;DHT22;5557;51.670;7.788;2023-09-18T03:11:56;19.10;97.30
11009;DHT22;5557;51.670;7.788;2023-09-18T03:14:23;19.10;96.40
11009;DHT22;5557;51.670;7.788;2023-09-18T03:16:52;19.20;95.50
11009;DHT22;5557;51.670;7.788;2023-09-18T03:19:22;19.20;94.90
11009;DHT22;5557;51.670;7.788;2023-09-18T03:21:51;19.20;94.20
11009;DHT22;5557;51.670;7.788;2023-09-18T03:24:19;19.20;93.70
11009;DHT22;5557;51.670;7.788;2023-09-18T03:26:50;19.30;92.70
11009;DHT22;5557;51.670;7.788;2023-09-18T03:29:19;19.40;90.90
11009;DHT22;5557;51.670;7.788;2023-09-18T03:31:48;19.50;87.00
11009;DHT22;5557;51.670;7.788;2023-09-18T03:34:17;19.50;84.30
11009;DHT22;5557;51.670;7.788;2023-09-18T03:36:47;19.50;83.50
11009;DHT22;5557;51.670;7.788;2023-09-18T03:39:15;19.60;80.70
11009;DHT22;5557;51.670;7.788;2023-09-18T03:41:43;19.70;77.10
11009;DHT22;5557;51.670;7.788;2023-09-18T03:44:10;19.70;74.20
11009;DHT22;5557;51.670;7.788;2023-09-18T03:46:37;19.80;70.40
11009;DHT22;5557;51.670;7.788;2023-09-18T03:49:04;19.90;68.20
11009;DHT22;5557;51.670;7.788;2023-09-18T03:51:31;19.90;67.00
11009;DHT22;5557;51.670;7.788;2023-09-18T03:53:58;19.90;62.80
11009;DHT22;5557;51.670;7.788;2023-09-18T03:56:26;20.20;54.50
11009;DHT22;5557;51.670;7.788;2023-09-18T03:58:53;20.30;49.60
11009;DHT22;5557;51.670;7.788;2023-09-18T04:01:20;20.40;45.70
11009;DHT22;5557;51.670;7.788;2023-09-18T04:03:47;20.40;44.00
11009;DHT22;5557;51.670;7.788;2023-09-18T04:06:14;20.50;39.90
11009;DHT22;5557;51.670;7.788;2023-09-18T04:08:41;20.60;38.40
11009;DHT22;5557;51.670;7.788;2023-09-18T04:11:09;20.60;36.50
11009;DHT22;5557;51.670;7.788;2023-09-18T04:13:37;20.70;33.80
11009;DHT22;5557;51.670;7.788;2023-09-18T04:16:04;20.80;33.20
11009;DHT22;5557;51.670;7.788;2023-09-18T04:18:31;20.80;32.60
11009;DHT22;5557;51.670;7.788;2023-09-18T04:21:00;20.90;30.20
11009;DHT22;5557;51.670;7.788;2023-09-18T04:23:27;20.90;29.80
11009;DHT22;5557;51.670;7.788;2023-09-18T04:25:57;21.00;29.10
11009;DHT22;5557;51.670;7.788;2023-09-18T04:28:25;20.90;28.50
11009;DHT22;5557;51.670;7.788;2023-09-18T04:30:52;21.00;28.30
11009;DHT22;5557;51.670;7.788;2023-09-18T04:33:19;21.00;28.30
11009;DHT22;5557;51.670;7.788;2023-09-18T04:35:49;21.00;27.10
11009;DHT22;5557;51.670;7.788;2023-09-18T04:38:17;21.10;25.80
11009;DHT22;5557;51.670;7.788;2023-09-18T04:40:46;21.10;25.20
11009;DHT22;5557;51.670;7.788;2023-09-18T04:43:13;21.10;25.70
11009;DHT22;5557;51.670;7.788;2023-09-18T04:45:40;21.00;25.60
11009;DHT22;5557;51.670;7.788;2023-09-18T04:48:09;21.00;25.00
11009;DHT22;5557;51.670;7.788;2023-09-18T04:50:37;21.00;24.40
11009;DHT22;5557;51.670;7.788;2023-09-18T04:53:04;21.10;22.80
11009;DHT22;5557;51.670;7.788;2023-09-18T04:55:32;21.10;21.40
11009;DHT22;5557;51.670;7.788;2023-09-18T04:57:59;21.20;20.30
11009;DHT22;5557;51.670;7.788;2023-09-18T05:00:26;21.20;18.40
11009;DHT22;5557;51.670;7.788;2023-09-18T05:02:58;21.30;17.40
11009;DHT22;5557;51.670;7.788;2023-09-18T05:05:28;21.30;17.10
11009;DHT22;5557;51.670;7.788;2023-09-18T05:08:02;21.30;17.00
11009;DHT22;5557;51.670;7.788;2023-09-18T05:10:37;21.30;17.00
11009;DHT22;5557;51.670;7.788;2023-09-18T05:13:19;21.30;16.90
11009;DHT22;5557;51.670;7.788;2023-09-18T05:15:56;21.30;16.20
11009;DHT22;5557;51.670;7.788;2023-09-18T05:18:26;21.40;16.60
11009;DHT22;5557;51.670;7.788;2023-09-18T05:20:53;21.40;16.90
11009;DHT22;5557;51.670;7.788;2023-09-18T05:23:20;21.40;17.10
11009;DHT22;5557;51.670;7.788;2023-09-18T05:25:50;21.30;17.10
11009;DHT22;5557;51.670;7.788;2023-09-18T05:28:24;21.40;17.60
11009;DHT22;5557;51.670;7.788;2023-09-18T05:30:57;21.40;18.30
11009;DHT22;5557;51.670;7.788;2023-09-18T05:33:29;21.40;18.90
11009;DHT22;5557;51.670;7.788;2023-09-18T05:35:59;21.40;18.50
11009;DHT22;5557;51.670;7.788;2023-09-18T05:38:26;21.40;18.50
11009;DHT22;5557;51.670;7.788;2023-09-18T05:41:00;21.40;17.20
11009;DHT22;5557;51.670;7.788;2023-09-18T05:43:32;21.50;17.50
11009;DHT22;5557;51.670;7.788;2023-09-18T05:46:03;21.40;18.30
11009;DHT22;5557;51.670;7.788;2023-09-18T05:48:36;21.40;18.10
11009;DHT22;5557;51.670;7.788;2023-09-18T05:51:03;21.40;18.00
11009;DHT22;5557;51.670;7.788;2023-09-18T05:53:33;21.50;17.80
11009;DHT22;5557;51.670;7.788;2023-09-18T05:56:01;21.50;17.20
11009;DHT22;5557;51.670;7.788;2023-09-18T05:58:34;21.50;17.20
11009;DHT22;5557;51.670;7.788;2023-09-18T06:01:02;21.50;17.20
11009;DHT22;5557;51.670;7.788;2023-09-18T06:03:29;21.40;18.40
11009;DHT22;5557;51.670;7.788;2023-09-18T06:06:04;21.40;17.80
11009;DHT22;5557;51.670;7.788;2023-09-18T06:08:32;21.50;17.80
11009;DHT22;5557;51.670;7.788;2023-09-18T06:11:00;21.50;16.60
11009;DHT22;5557;51.670;7.788;2023-09-18T06:13:27;21.60;16.10
11009;DHT22;5557;51.670;7.788;2023-09-18T06:15:55;21.60;16.80
11009;DHT22;5557;51.670;7.788;2023-09-18T06:18:22;21.60;16.10
11009;DHT22;5557;51.670;7.788;2023-09-18T06:20:49;21.70;16.00
11009;DHT22;5557;51.670;7.788;2023-09-18T06:23:17;21.70;15.50
11009;DHT22;5557;51.670;7.788;2023-09-18T06:25:44;21.90;14.20
11009;DHT22;5557;51.670;7.788;2023-09-18T06:28:14;22.00;13.80
11009;DHT22;5557;51.670;7.788;2023-09-18T06:30:41;22.10;13.10
11009;DHT22;5557;51.670;7.788;2023-09-18T06:33:10;22.10;11.50
11009;DHT22;5557;51.670;7.788;2023-09-18T06:35:39;22.20;11.00
11009;DHT22;5557;51.670;7.788;2023-09-18T06:38:06;22.20;11.00
11009;DHT22;5557;51.670;7.788;2023-09-18T06:40:33;22.10;11.70
11009;DHT22;5557;51.670;7.788;2023-09-18T06:43:05;22.10;11.70
11009;DHT22;5557;51.670;7.788;2023-09-18T06:45:32;22.00;13.10
11009;DHT22;5557;51.670;7.788;2023-09-18T06:48:00;22.00;13.80
11009;DHT22;5557;51.670;7.788;2023-09-18T06:50:27;21.90;14.40
11009;DHT22;5557;51.670;7.788;2023-09-18T06:52:55;21.90;15.40
11009;DHT22;5557;51.670;7.788;2023-09-18T06:55:23;21.80;15.50
11009;DHT22;5557;51.670;7.788;2023-09-18T06:57:50;21.80;17.30
11009;DHT22;5557;51.670;7.788;2023-09-18T07:00:20;21.80;15.80
11009;DHT22;5557;51.670;7.788;2023-09-18T07:02:48;21.80;16.60
11009;DHT22;5557;51.670;7.788;2023-09-18T07:05:24;21.80;16.50
11009;DHT22;5557;51.670;7.788;2023-09-18T07:07:51;21.80;17.40
11009;DHT22;5557;51.670;7.788;2023-09-18T07:10:18;21.80;17.40
11009;DHT22;5557;51.670;7.788;2023-09-18T07:12:45;21.70;17.30
11009;DHT22;5557;51.670;7.788;2023-09-18T07:15:12;21.70;18.20
11009;DHT22;5557;51.670;7.788;2023-09-18T07:17:39;21.70;18.20
11009;DHT22;5557;51.670;7.788;2023-09-18T07:20:07;21.60;19.40
11009;DHT22;5557;51.670;7.788;2023-09-18T07:22:46;21.60;19.70
11009;DHT22;5557;51.670;7.788;2023-09-18T07:25:15;21.60;19.60
11009;DHT22;5557;51.670;7.788;2023-09-18T07:27:42;21.60;18.90
11009;DHT22;5557;51.670;7.788;2023-09-18T07:30:14;21.70;19.70
11009;DHT22;5557;51.670;7.788;2023-09-18T07:32:46;21.70;17.40
11009;DHT22;5557;51.670;7.788;2023-09-18T07:35:13;21.70;18.40
11009;DHT22;5557;51.670;7.788;2023-09-18T07:37:41;21.90;18.40
11009;DHT22;5557;51.670;7.788;2023-09-18T07:40:11;22.00;16.30
11009;DHT22;5557;51.670;7.788;2023-09-18T07:42:38;22.10;14.00
11009;DHT22;5557;51.670;7.788;2023-09-18T07:45:08;22.20;12.40
11009;DHT22;5557;51.670;7.788;2023-09-18T07:47:36;22.30;13.30
11009;DHT22;5557;51.670;7.788;2023-09-18T07:50:03;22.20;13.40
11009;DHT22;5557;51.670;7.788;2023-09-18T07:52:37;22.20;13.30
11009;DHT22;5557;51.670;7.788;2023-09-18T07:55:08;22.10;14.40
11009;DHT22;5557;51.670;7.788;2023-09-18T07:57:36;22.00;15.30
11009;DHT22;5557;51.670;7.788;2023-09-18T08:00:06;22.00;16.20
11009;DHT22;5557;51.670;7.788;2023-09-18T08:02:40;21.90;16.70
11009;DHT22;5557;51.670;7.788;2023-09-18T08:05:07;21.80;17.70
11009;DHT22;5557;51.670;7.788;2023-09-18T08:07:38;21.70;19.00
11009;DHT22;5557;51.670;7.788;2023-09-18T08:10:08;21.80;18.70
11009;DHT22;5557;51.670;7.788;2023-09-18T08:12:38;21.80;19.30
11009;DHT22;5557;51.670;7.788;2023-09-18T08:15:06;21.80;17.40
11009;DHT22;5557;51.670;7.788;2023-09-18T08:17:35;21.90;17.60
11009;DHT22;5557;51.670;7.788;2023-09-18T08:20:05;21.90;17.50
11009;DHT22;5557;51.670;7.788;2023-09-18T08:22:39;22.00;17.50
11009;DHT22;5557;51.670;7.788;2023-09-18T08:25:07;22.00;15.30
11009;DHT22;5557;51.670;7.788;2023-09-18T08:27:38;22.00;16.00
11009;DHT22;5557;51.670;7.788;2023-09-18T08:30:13;22.00;16.50
11009;DHT22;5557;51.670;7.788;2023-09-18T08:32:42;22.00;15.30
11009;DHT22;5557;51.670;7.788;2023-09-18T08:35:10;22.10;15.30
11009;DHT22;5557;51.670;7.788;2023-09-18T08:37:40;22.20;14.50
11009;DHT22;5557;51.670;7.788;2023-09-18T08:40:11;22.30;13.30
11009;DHT22;5557;51.670;7.788;2023-09-18T08:42:46;22.30;11.10
11009;DHT22;5557;51.670;7.788;2023-09-18T08:45:34;22.40;11.30
11009;DHT22;5557;51.670;7.788;2023-09-18T08:48:02;22.50;8.40
11009;DHT22;5557;51.670;7.788;2023-09-18T08:50:30;22.60;6.80
11009;DHT22;5557;51.670;7.788;2023-09-18T08:52:58;22.70;7.60
11009;DHT22;5557;51.670;7.788;2023-09-18T08:55:26;22.70;7.00
11009;DHT22;5557;51.670;7.788;2023-09-18T08:57:58;22.70;8.10
11009;DHT22;5557;51.670;7.788;2023-09-18T09:00:29;22.80;7.70
11009;DHT22;5557;51.670;7.788;2023-09-18T09:03:04;22.60;6.80
11009;DHT22;5557;51.670;7.788;2023-09-18T09:05:32;22.60;8.60
11009;DHT22;5557;51.670;7.788;2023-09-18T09:08:03;22.60;9.80
11009;DHT22;5557;51.670;7.788;2023-09-18T09:10:30;22.50;8.60
11009;DHT22;5557;51.670;7.788;2023-09-18T09:13:01;22.50;9.60
11009;DHT22;5557;51.670;7.788;2023-09-18T09:15:34;22.50;10.40
11009;DHT22;5557;51.670;7.788;2023-09-18T09:18:18;22.60;8.60
11009;DHT22;5557;51.670;7.788;2023-09-18T09:21:04;22.50;7.00
11009;DHT22;5557;51.670;7.788;2023-09-18T09:23:48;22.50;9.10
11009;DHT22;5557;51.670;7.788;2023-09-18T09:26:17;22.50;7.60
11009;DHT22;5557;51.670;7.788;2023-09-18T09:28:45;22.50;9.80
11009;DHT22;5557;51.670;7.788;2023-09-18T09:31:26;22.60;8.80
11009;DHT22;5557;51.670;7.788;2023-09-18T09:33:55;22.50;7.00
11009;DHT22;5557;51.670;7.788;2023-09-18T09:36:26;22.60;6.90
11009;DHT22;5557;51.670;7.788;2023-09-18T09:39:01;22.60;2.40
11009;DHT22;5557;51.670;7.788;2023-09-18T09:41:31;22.60;3.00
11009;DHT22;5557;51.670;7.788;2023-09-18T09:44:00;22.90;1.80
11009;DHT22;5557;51.670;7.788;2023-09-18T09:46:28;23.10;1.00
11009;DHT22;5557;51.670;7.788;2023-09-18T09:49:03;23.40;1.00
11009;DHT22;5557;51.670;7.788;2023-09-18T09:51:33;24.00;1.00
11009;DHT22;5557;51.670;7.788;2023-09-18T09:54:01;24.10;1.00
11009;DHT22;5557;51.670;7.788;2023-09-18T09:56:48;24.10;1.00
11009;DHT22;5557;51.670;7.788;2023-09-18T09:59:19;24.00;1.00
11009;DHT22;5557;51.670;7.788;2023-09-18T10:01:47;24.10;1.00
11009;DHT22;5557;51.670;7.788;2023-09-18T10:04:21;24.20;1.00
11009;DHT22;5557;51.670;7.788;2023-09-18T10:06:57;24.40;1.00
11009;DHT22;5557;51.670;7.788;2023-09-18T10:09:26;24.80;1.00
11009;DHT22;5557;51.670;7.788;2023-09-18T10:11:56;24.90;1.00
11009;DHT22;5557;51.670;7.788;2023-09-18T10:14:33;25.10;1.00
11009;DHT22;5557;51.670;7.788;2023-09-18T10:17:22;25.00;1.00
11009;DHT22;5557;51.670;7.788;2023-09-18T10:19:59;24.80;1.00
11009;DHT22;5557;51.670;7.788;2023-09-18T10:22:46;24.60;1.00
11009;DHT22;5557;51.670;7.788;2023-09-18T10:25:23;24.50;1.00
11009;DHT22;5557;51.670;7.788;2023-09-18T10:27:51;24.70;1.00
11009;DHT22;5557;51.670;7.788;2023-09-18T10:30:25;24.70;1.00
11009;DHT22;5557;51.670;7.788;2023-09-18T10:32:53;24.50;1.00
11009;DHT22;5557;51.670;7.788;2023-09-18T10:35:22;24.40;1.00
11009;DHT22;5557;51.670;7.788;2023-09-18T10:37:49;24.20;1.00
11009;DHT22;5557;51.670;7.788;2023-09-18T10:40:21;24.10;1.00
11009;DHT22;5557;51.670;7.788;2023-09-18T10:42:50;24.20;1.00
11009;DHT22;5557;51.670;7.788;2023-09-18T10:45:19;24.20;1.00
11009;DHT22;5557;51.670;7.788;2023-09-18T10:47:48;24.20;1.00
11009;DHT22;5557;51.670;7.788;2023-09-18T10:50:26;24.20;1.00
11009;DHT22;5557;51.670;7.788;2023-09-18T10:52:54;24.20;1.00
11009;DHT22;5557;51.670;7.788;2023-09-18T10:55:24;24.30;1.00
11009;DHT22;5557;51.670;7.788;2023-09-18T10:57:57;24.10;1.00
11009;DHT22;5557;51.670;7.788;2023-09-18T11:00:25;24.20;1.00
11009;DHT22;5557;51.670;7.788;2023-09-18T11:05:39;24.80;1.00
11009;DHT22;5557;51.670;7.788;2023-09-18T11:08:45;25.10;1.00
11009;DHT22;5557;51.670;7.788;2023-09-18T11:11:13;25.30;1.00
11009;DHT22;5557;51.670;7.788;2023-09-18T11:13:48;25.40;1.00
11009;DHT22;5557;51.670;7.788;2023-09-18T11:19:18;25.60;1.00
11009;DHT22;5557;51.670;7.788;2023-09-18T11:21:47;25.60;1.00
11009;DHT22;5557;51.670;7.788;2023-09-18T11:24:19;25.60;1.00
11009;DHT22;5557;51.670;7.788;2023-09-18T11:26:48;25.50;1.00
11009;DHT22;5557;51.670;7.788;2023-09-18T11:29:22;25.40;1.00
11009;DHT22;5557;51.670;7.788;2023-09-18T11:31:56;25.20;1.00
11009;DHT22;5557;51.670;7.788;2023-09-18T11:34:32;25.10;1.00
11009;DHT22;5557;51.670;7.788;2023-09-18T11:37:03;24.90;1.00
11009;DHT22;5557;51.670;7.788;2023-09-18T11:39:46;25.10;1.00
11009;DHT22;5557;51.670;7.788;2023-09-18T11:42:17;25.40;1.00
11009;DHT22;5557;51.670;7.788;2023-09-18T11:44:45;25.50;1.00
11009;DHT22;5557;51.670;7.788;2023-09-18T11:47:17;25.80;1.00
11009;DHT22;5557;51.670;7.788;2023-09-18T11:50:00;25.80;1.00
11009;DHT22;5557;51.670;7.788;2023-09-18T11:52:30;25.80;1.00
11009;DHT22;5557;51.670;7.788;2023-09-18T11:54:59;25.90;1.00
11009;DHT22;5557;51.670;7.788;2023-09-18T11:57:27;26.00;1.00
11009;DHT22;5557;51.670;7.788;2023-09-18T11:59:56;26.00;1.00
11009;DHT22;5557;51.670;7.788;2023-09-18T12:02:31;25.90;1.00
11009;DHT22;5557;51.670;7.788;2023-09-18T12:05:15;25.60;1.00
11009;DHT22;5557;51.670;7.788;2023-09-18T12:07:43;25.60;1.00
11009;DHT22;5557;51.670;7.788;2023-09-18T12:10:14;25.60;1.00
11009;DHT22;5557;51.670;7.788;2023-09-18T12:12:42;25.40;1.00
11009;DHT22;5557;51.670;7.788;2023-09-18T12:15:13;25.40;1.00
11009;DHT22;5557;51.670;7.788;2023-09-18T12:17:42;25.50;1.00
11009;DHT22;5557;51.670;7.788;2023-09-18T12:20:18;25.60;1.00
11009;DHT22;5557;51.670;7.788;2023-09-18T12:22:49;25.50;1.00
11009;DHT22;5557;51.670;7.788;2023-09-18T12:25:18;25.30;1.00
11009;DHT22;5557;51.670;7.788;2023-09-18T12:27:45;25.10;1.00
11009;DHT22;5557;51.670;7.788;2023-09-18T12:30:13;25.10;1.00
11009;DHT22;5557;51.670;7.788;2023-09-18T12:32:48;25.10;1.00
11009;DHT22;5557;51.670;7.788;2023-09-18T12:35:16;24.90;1.00
11009;DHT22;5557;51.670;7.788;2023-09-18T12:37:45;24.90;1.00
11009;DHT22;5557;51.670;7.788;2023-09-18T12:40:31;24.90;1.00
11009;DHT22;5557;51.670;7.788;2023-09-18T12:43:02;24.80;1.00
11009;DHT22;5557;51.670;7.788;2023-09-18T12:45:30;24.90;1.00
11009;DHT22;5557;51.670;7.788;2023-09-18T12:47:57;25.00;1.00
11009;DHT22;5557;51.670;7.788;2023-09-18T12:50:26;25.10;1.00
11009;DHT22;5557;51.670;7.788;2023-09-18T12:52:53;25.20;1.00
11009;DHT22;5557;51.670;7.788;2023-09-18T12:55:22;25.30;1.00
11009;DHT22;5557;51.670;7.788;2023-09-18T12:57:51;25.20;1.00
11009;DHT22;5557;51.670;7.788;2023-09-18T13:00:22;25.10;1.00
11009;DHT22;5557;51.670;7.788;2023-09-18T13:02:50;25.00;1.00
11009;DHT22;5557;51.670;7.788;2023-09-18T13:05:23;25.10;1.00
11009;DHT22;5557;51.670;7.788;2023-09-18T13:07:54;25.20;1.00
11009;DHT22;5557;51.670;7.788;2023-09-18T13:10:22;25.30;1.00
11009;DHT22;5557;51.670;7.788;2023-09-18T13:12:54;25.30;1.00
11009;DHT22;5557;51.670;7.788;2023-09-18T13:15:32;25.10;1.00
11009;DHT22;5557;51.670;7.788;2023-09-18T13:18:08;25.00;1.00
11009;DHT22;5557;51.670;7.788;2023-09-18T13:20:35;24.90;1.00
11009;DHT22;5557;51.670;7.788;2023-09-18T13:23:02;24.80;1.00
11009;DHT22;5557;51.670;7.788;2023-09-18T13:25:40;24.70;1.00
11009;DHT22;5557;51.670;7.788;2023-09-18T13:28:11;24.60;1.00
11009;DHT22;5557;51.670;7.788;2023-09-18T13:30:40;24.70;1.00
11009;DHT22;5557;51.670;7.788;2023-09-18T13:33:10;24.80;1.00
11009;DHT22;5557;51.670;7.788;2023-09-18T13:35:40;24.90;1.00
11009;DHT22;5557;51.670;7.788;2023-09-18T13:38:10;24.80;1.00
11009;DHT22;5557;51.670;7.788;2023-09-18T13:40:38;24.70;1.00
11009;DHT22;5557;51.670;7.788;2023-09-18T13:43:08;24.60;1.00
11009;DHT22;5557;51.670;7.788;2023-09-18T13:45:35;24.60;1.00
11009;DHT22;5557;51.670;7.788;2023-09-18T13:48:06;24.80;1.00
11009;DHT22;5557;51.670;7.788;2023-09-18T13:50:35;25.10;1.00
11009;DHT22;5557;51.670;7.788;2023-09-18T13:53:03;25.10;1.00
11009;DHT22;5557;51.670;7.788;2023-09-18T13:55:34;25.00;1.00
11009;DHT22;5557;51.670;7.788;2023-09-18T13:58:02;24.80;1.00
11009;DHT22;5557;51.670;7.788;2023-09-18T14:00:31;24.80;1.00
11009;DHT22;5557;51.670;7.788;2023-09-18T14:02:58;24.60;1.00
11009;DHT22;5557;51.670;7.788;2023-09-18T14:05:26;24.60;1.00
11009;DHT22;5557;51.670;7.788;2023-09-18T14:07:55;24.60;1.00
11009;DHT22;5557;51.670;7.788;2023-09-18T14:10:27;24.60;1.00
11009;DHT22;5557;51.670;7.788;2023-09-18T14:12:55;24.80;1.00
11009;DHT22;5557;51.670;7.788;2023-09-18T14:15:22;24.90;1.00
11009;DHT22;5557;51.670;7.788;2023-09-18T14:17:49;25.00;1.00
11009;DHT22;5557;51.670;7.788;2023-09-18T14:20:16;25.10;1.00
11009;DHT22;5557;51.670;7.788;2023-09-18T14:22:46;25.10;1.00
11009;DHT22;5557;51.670;7.788;2023-09-18T14:25:17;25.20;1.00
11009;DHT22;5557;51.670;7.788;2023-09-18T14:27:47;25.20;1.00
11009;DHT22;5557;51.670;7.788;2023-09-18T14:30:15;25.20;1.00
11009;DHT22;5557;51.670;7.788;2023-09-18T14:32:42;25.10;1.00
11009;DHT22;5557;51.670;7.788;2023-09-18T14:35:09;25.10;1.00
11009;DHT22;5557;51.670;7.788;2023-09-18T14:37:37;25.10;1.00
11009;DHT22;5557;51.670;7.788;2023-09-18T14:40:06;25.10;1.00
11009;DHT22;5557;51.670;7.788;2023-09-18T14:42:39;25.10;1.00
11009;DHT22;5557;51.670;7.788;2023-09-18T14:45:07;25.10;1.00
11009;DHT22;5557;51.670;7.788;2023-09-18T14:47:34;25.00;1.00
11009;DHT22;5557;51.670;7.788;2023-09-18T14:50:02;24.90;1.00
11009;DHT22;5557;51.670;7.788;2023-09-18T14:52:30;24.90;1.00
11009;DHT22;5557;51.670;7.788;2023-09-18T14:54:57;24.90;1.00
11009;DHT22;5557;51.670;7.788;2023-09-18T14:57:25;24.90;1.00
11009;DHT22;5557;51.670;7.788;2023-09-18T14:59:53;25.00;1.00
11009;DHT22;5557;51.670;7.788;2023-09-18T15:02:20;25.10;1.00
11009;DHT22;5557;51.670;7.788;2023-09-18T15:04:51;25.10;1.00
11009;DHT22;5557;51.670;7.788;2023-09-18T15:07:18;25.20;1.00
11009;DHT22;5557;51.670;7.788;2023-09-18T15:09:45;25.20;1.00
11009;DHT22;5557;51.670;7.788;2023-09-18T15:12:12;25.30;1.00
11009;DHT22;5557;51.670;7.788;2023-09-18T15:14:40;25.50;1.00
11009;DHT22;5557;51.670;7.788;2023-09-18T15:17:07;25.50;1.00
11009;DHT22;5557;51.670;7.788;2023-09-18T15:19:35;25.50;1.00
11009;DHT22;5557;51.670;7.788;2023-09-18T15:22:02;25.30;1.00
11009;DHT22;5557;51.670;7.788;2023-09-18T15:24:30;25.20;1.00
11009;DHT22;5557;51.670;7.788;2023-09-18T15:26:57;25.10;1.00
11009;DHT22;5557;51.670;7.788;2023-09-18T15:29:25;25.00;1.00
11009;DHT22;5557;51.670;7.788;2023-09-18T15:32:00;25.00;1.00
11009;DHT22;5557;51.670;7.788;2023-09-18T15:34:32;25.00;1.00
11009;DHT22;5557;51.670;7.788;2023-09-18T15:37:00;25.00;1.00
11009;DHT22;5557;51.670;7.788;2023-09-18T15:39:31;24.90;1.00
11009;DHT22;5557;51.670;7.788;2023-09-18T15:41:59;24.80;1.00
11009;DHT22;5557;51.670;7.788;2023-09-18T15:44:27;24.80;1.00
11009;DHT22;5557;51.670;7.788;2023-09-18T15:46:54;24.60;1.00
11009;DHT22;5557;51.670;7.788;2023-09-18T15:49:21;24.50;1.00
11009;DHT22;5557;51.670;7.788;2023-09-18T15:51:49;24.40;1.00
11009;DHT22;5557;51.670;7.788;2023-09-18T15:54:16;24.30;1.00
11009;DHT22;5557;51.670;7.788;2023-09-18T15:56:43;24.20;1.00
11009;DHT22;5557;51.670;7.788;2023-09-18T15:59:11;24.20;1.00
11009;DHT22;5557;51.670;7.788;2023-09-18T16:01:50;24.20;1.00
11009;DHT22;5557;51.670;7.788;2023-09-18T16:04:18;24.20;1.00
11009;DHT22;5557;51.670;7.788;2023-09-18T16:06:46;24.20;1.00
11009;DHT22;5557;51.670;7.788;2023-09-18T16:09:13;24.20;1.00
11009;DHT22;5557;51.670;7.788;2023-09-18T16:11:40;24.30;1.00
11009;DHT22;5557;51.670;7.788;2023-09-18T16:14:14;24.40;1.00